createdAt,value
2019-05-20T00:02:23.539Z,60.30
2019-05-20T00:04:45.517Z,60.10
2019-05-20T00:07:16.487Z,60.00
2019-05-20T00:09:47.596Z,59.80
2019-05-20T00:12:18.729Z,59.90
2019-05-20T00:14:49.720Z,60.00
2019-05-20T00:17:20.543Z,59.70
2019-05-20T00:19:51.349Z,59.90
2019-05-20T00:22:22.283Z,59.80
2019-05-20T00:24:53.251Z,59.60
2019-05-20T00:27:24.311Z,59.60
2019-05-20T00:29:55.099Z,59.50
2019-05-20T00:32:40.312Z,59.30
2019-05-20T00:34:58.151Z,59.40
2019-05-20T00:37:29.479Z,59.10
2019-05-20T00:40:00.457Z,59.00
2019-05-20T00:42:31.516Z,59.00
2019-05-20T00:45:02.528Z,58.90
2019-05-20T00:47:33.521Z,58.90
2019-05-20T00:50:11.484Z,59.00
2019-05-20T00:52:42.265Z,58.80
2019-05-20T00:55:15.590Z,58.80
2019-05-20T00:57:46.388Z,58.90
2019-05-20T01:00:17.537Z,58.30
2019-05-20T01:02:56.540Z,57.90
2019-05-20T01:05:20.910Z,57.70
2019-05-20T01:07:51.904Z,57.70
2019-05-20T01:10:23.876Z,57.80
2019-05-20T01:12:54.719Z,57.60
2019-05-20T01:15:26.409Z,57.30
2019-05-20T01:17:57.536Z,57.00
2019-05-20T01:20:28.444Z,56.90
2019-05-20T01:22:59.375Z,56.60
2019-05-20T01:25:30.215Z,56.70
2019-05-20T01:28:01.244Z,56.70
2019-05-20T01:30:32.318Z,56.50
2019-05-20T01:33:13.474Z,56.40
2019-05-20T01:35:37.853Z,56.30
2019-05-20T01:38:08.786Z,56.00
2019-05-20T01:40:39.513Z,56.00
2019-05-20T01:43:10.509Z,55.60
2019-05-20T01:45:42.568Z,55.30
2019-05-20T01:48:13.575Z,55.30
2019-05-20T01:50:45.257Z,54.90
2019-05-20T01:53:16.223Z,54.80
2019-05-20T01:55:47.164Z,54.30
2019-05-20T01:58:17.997Z,53.90
2019-05-20T02:00:48.944Z,53.90
2019-05-20T02:05:52.143Z,53.60
2019-05-20T02:08:22.994Z,53.50
2019-05-20T02:08:53.776Z,53.80
2019-05-20T02:10:56.459Z,54.10
2019-05-20T02:13:27.538Z,53.10
2019-05-20T02:15:59.765Z,52.20
2019-05-20T02:18:30.801Z,52.10
2019-05-20T02:21:07.337Z,52.00
2019-05-20T02:23:39.096Z,51.60
2019-05-20T02:26:14.154Z,51.90
2019-05-20T02:28:46.840Z,51.30
2019-05-20T02:31:17.289Z,51.00
2019-05-20T02:33:52.272Z,50.90
2019-05-20T02:36:20.597Z,50.50
2019-05-20T02:38:51.526Z,50.40
2019-05-20T02:41:22.593Z,50.20
2019-05-20T02:43:54.755Z,48.90
2019-05-20T02:46:25.822Z,49.70
2019-05-20T02:48:59.479Z,49.50
2019-05-20T02:51:31.931Z,49.50
2019-05-20T02:54:03.736Z,49.00
2019-05-20T02:56:35.061Z,48.10
2019-05-20T02:59:06.081Z,47.50
2019-05-20T03:01:36.845Z,47.30
2019-05-20T03:04:12.048Z,48.50
2019-05-20T03:06:40.173Z,48.80
2019-05-20T03:09:13.400Z,48.60
2019-05-20T03:11:44.402Z,48.30
2019-05-20T03:14:15.668Z,48.70
2019-05-20T03:16:46.522Z,48.20
2019-05-20T03:19:17.563Z,47.90
2019-05-20T03:21:48.520Z,47.60
2019-05-20T03:24:22.401Z,47.30
2019-05-20T03:26:53.267Z,47.40
2019-05-20T03:29:25.465Z,47.50
2019-05-20T03:31:56.179Z,47.00
2019-05-20T03:34:45.658Z,47.60
2019-05-20T03:37:02.478Z,47.80
2019-05-20T03:39:34.169Z,48.50
2019-05-20T03:42:05.243Z,47.50
2019-05-20T03:44:36.088Z,47.30
2019-05-20T03:47:08.831Z,47.50
2019-05-20T03:49:40.502Z,45.90
2019-05-20T03:52:11.630Z,46.10
2019-05-20T03:54:42.546Z,46.40
2019-05-20T03:57:13.378Z,46.30
2019-05-20T03:59:53.387Z,46.00
2019-05-20T04:02:23.861Z,46.50
2019-05-20T04:05:02.563Z,46.40
2019-05-20T04:07:30.337Z,46.20
2019-05-20T04:10:08.673Z,45.80
2019-05-20T04:12:41.633Z,45.90
2019-05-20T04:15:14.398Z,46.30
2019-05-20T04:17:48.161Z,46.20
2019-05-20T04:20:18.939Z,45.80
2019-05-20T04:22:49.972Z,45.90
2019-05-20T04:25:20.895Z,45.80
2019-05-20T04:27:51.899Z,46.10
2019-05-20T04:30:22.741Z,45.90
2019-05-20T04:32:53.870Z,45.00
2019-05-20T04:35:26.845Z,45.10
2019-05-20T04:37:57.882Z,45.10
2019-05-20T04:40:31.190Z,44.90
2019-05-20T04:43:02.185Z,45.00
2019-05-20T04:45:33.021Z,44.20
2019-05-20T04:48:03.926Z,44.50
2019-05-20T04:50:34.926Z,44.00
2019-05-20T04:53:06.912Z,43.70
2019-05-20T04:55:37.949Z,42.60
2019-05-20T04:58:08.877Z,42.10
2019-05-20T05:00:42.081Z,42.80
2019-05-20T05:03:13.070Z,42.90
2019-05-20T05:05:44.196Z,41.90
2019-05-20T05:08:15.182Z,41.90
2019-05-20T05:10:46.063Z,42.10
2019-05-20T05:13:17.186Z,42.10
2019-05-20T05:15:48.234Z,41.80
2019-05-20T05:18:19.485Z,41.50
2019-05-20T05:20:50.652Z,41.30
2019-05-20T05:23:22.072Z,40.30
2019-05-20T05:25:53.119Z,40.90
2019-05-20T05:28:24.118Z,40.90
2019-05-20T05:30:57.349Z,40.40
2019-05-20T05:33:27.715Z,40.50
2019-05-20T05:35:59.174Z,40.10
2019-05-20T05:38:30.065Z,40.40
2019-05-20T05:41:00.844Z,40.50
2019-05-20T05:43:31.820Z,40.30
2019-05-20T05:46:02.667Z,40.00
2019-05-20T05:48:33.371Z,39.10
2019-05-20T05:51:04.173Z,38.40
2019-05-20T05:53:34.910Z,37.50
2019-05-20T05:56:08.997Z,37.30
2019-05-20T05:58:40.024Z,37.30
2019-05-20T06:01:10.908Z,37.70
2019-05-20T06:03:42.140Z,38.20
2019-05-20T06:06:14.150Z,38.60
2019-05-20T06:08:45.143Z,39.10
2019-05-20T06:11:18.149Z,38.60
2019-05-20T06:13:48.975Z,38.20
2019-05-20T06:16:35.354Z,38.70
2019-05-20T06:18:53.253Z,38.20
2019-05-20T06:21:25.828Z,36.90
2019-05-20T06:23:56.291Z,38.00
2019-05-20T06:26:27.218Z,37.50
2019-05-20T06:28:58.128Z,38.20
2019-05-20T06:31:38.071Z,39.10
2019-05-20T06:34:08.915Z,38.90
2019-05-20T06:36:41.209Z,39.10
2019-05-20T06:39:12.903Z,39.10
2019-05-20T06:41:44.415Z,39.10
2019-05-20T06:44:15.335Z,39.20
2019-05-20T06:46:46.113Z,38.90
2019-05-20T06:49:16.974Z,39.60
2019-05-20T06:51:47.967Z,39.90
2019-05-20T06:54:18.970Z,39.80
2019-05-20T06:56:49.826Z,39.50
2019-05-20T06:59:20.878Z,39.60
2019-05-20T07:01:51.876Z,39.40
2019-05-20T07:04:22.816Z,39.50
2019-05-20T07:06:53.803Z,39.80
2019-05-20T07:09:24.745Z,39.70
2019-05-20T07:11:55.688Z,39.70
2019-05-20T07:14:26.509Z,39.90
2019-05-20T07:16:57.459Z,39.90
2019-05-20T07:19:28.404Z,40.00
2019-05-20T07:21:59.258Z,39.90
2019-05-20T07:24:30.208Z,39.90
2019-05-20T07:27:01.090Z,40.00
2019-05-20T07:29:31.986Z,40.20
2019-05-20T07:32:02.935Z,40.30
2019-05-20T07:34:33.963Z,40.80
2019-05-20T07:37:04.870Z,41.20
2019-05-20T07:39:35.828Z,41.10
2019-05-20T07:42:09.307Z,41.20
2019-05-20T07:44:39.120Z,42.50
2019-05-20T07:47:29.331Z,41.80
2019-05-20T07:50:00.449Z,41.90
2019-05-20T07:52:31.838Z,41.90
2019-05-20T07:55:03.534Z,41.80
2019-05-20T07:57:36.872Z,41.60
2019-05-20T08:00:10.768Z,41.70
2019-05-20T08:02:42.073Z,42.00
2019-05-20T08:05:13.594Z,41.80
2019-05-20T08:07:52.032Z,41.60
2019-05-20T08:10:19.794Z,41.50
2019-05-20T08:12:50.652Z,42.10
2019-05-20T08:15:21.680Z,41.70
2019-05-20T08:17:52.763Z,41.80
2019-05-20T08:20:23.979Z,41.40
2019-05-20T08:22:54.888Z,40.60
2019-05-20T08:25:25.876Z,40.30
2019-05-20T08:27:59.388Z,40.40
2019-05-20T08:30:32.679Z,40.20
2019-05-20T08:33:03.739Z,40.20
2019-05-20T08:35:34.675Z,40.60
2019-05-20T08:38:05.689Z,40.80
2019-05-20T08:40:36.559Z,40.70
2019-05-20T08:43:07.465Z,41.00
2019-05-20T08:45:38.404Z,41.30
2019-05-20T08:48:09.150Z,41.10
2019-05-20T08:50:40.461Z,40.60
2019-05-20T08:53:14.445Z,40.20
2019-05-20T08:55:45.285Z,39.90
2019-05-20T08:58:16.024Z,39.90
2019-05-20T09:00:47.968Z,39.70
2019-05-20T09:03:19.018Z,39.50
2019-05-20T09:05:50.032Z,39.60
2019-05-20T09:08:21.059Z,39.10
2019-05-20T09:10:52.084Z,39.40
2019-05-20T09:13:23.131Z,39.30
2019-05-20T09:15:54.214Z,39.50
2019-05-20T09:18:25.132Z,39.70
2019-05-20T09:20:55.858Z,40.00
2019-05-20T09:23:27.802Z,39.40
2019-05-20T09:25:58.628Z,39.30
2019-05-20T09:28:29.881Z,39.80
2019-05-20T09:31:01.035Z,39.80
2019-05-20T09:33:32.259Z,39.90
2019-05-20T09:36:04.794Z,39.70
2019-05-20T09:38:37.078Z,39.50
2019-05-20T09:41:08.208Z,40.00
2019-05-20T09:43:41.379Z,40.00
2019-05-20T09:46:12.241Z,40.30
2019-05-20T09:48:46.273Z,40.50
2019-05-20T09:51:19.015Z,40.50
2019-05-20T09:53:49.464Z,40.40
2019-05-20T09:56:21.227Z,40.60
2019-05-20T09:58:52.362Z,40.40
2019-05-20T10:01:25.485Z,40.50
2019-05-20T10:03:56.186Z,40.90
2019-05-20T10:06:27.432Z,40.80
2019-05-20T10:08:58.299Z,40.70
2019-05-20T10:11:38.742Z,40.80
2019-05-20T10:14:38.534Z,40.70
2019-05-20T10:16:49.085Z,40.80
2019-05-20T10:19:20.155Z,40.80
2019-05-20T10:21:50.859Z,40.90
2019-05-20T10:24:21.908Z,40.60
2019-05-20T10:26:53.940Z,40.40
2019-05-20T10:29:25.222Z,40.20
2019-05-20T10:31:56.042Z,40.50
2019-05-20T10:34:29.146Z,40.50
2019-05-20T10:36:59.991Z,40.30
2019-05-20T10:39:32.063Z,40.30
2019-05-20T10:42:02.966Z,40.10
2019-05-20T10:44:33.969Z,40.30
2019-05-20T10:47:04.751Z,40.10
2019-05-20T10:49:35.553Z,40.40
2019-05-20T10:52:08.481Z,39.90
2019-05-20T10:54:38.856Z,40.10
2019-05-20T10:57:09.721Z,40.10
2019-05-20T10:59:40.615Z,40.40
2019-05-20T11:02:11.578Z,41.40
2019-05-20T11:04:48.019Z,40.80
2019-05-20T11:07:19.074Z,41.20
2019-05-20T11:09:51.313Z,41.30
2019-05-20T11:12:22.387Z,41.60
2019-05-20T11:14:53.318Z,41.90
2019-05-20T11:17:24.415Z,41.90
2019-05-20T11:19:55.345Z,42.10
2019-05-20T11:22:26.844Z,42.30
2019-05-20T11:25:04.058Z,42.40
2019-05-20T11:27:34.875Z,42.40
2019-05-20T11:30:07.945Z,42.30
2019-05-20T11:32:38.871Z,42.40
2019-05-20T11:35:12.526Z,42.60
2019-05-20T11:37:43.515Z,42.70
2019-05-20T11:40:18.891Z,42.70
2019-05-20T11:42:50.462Z,42.80
2019-05-20T11:45:21.482Z,42.80
2019-05-20T11:47:52.328Z,42.80
2019-05-20T11:50:23.448Z,42.90
2019-05-20T11:52:54.281Z,43.00
2019-05-20T11:55:35.647Z,43.10
2019-05-20T11:58:15.868Z,43.10
2019-05-20T12:00:38.941Z,43.20
2019-05-20T12:03:14.063Z,43.40
2019-05-20T12:05:45.666Z,43.40
2019-05-20T12:08:16.533Z,43.60
2019-05-20T12:10:47.511Z,43.60
2019-05-20T12:13:18.403Z,43.70
2019-05-20T12:15:49.321Z,43.70
2019-05-20T12:18:20.356Z,44.00
2019-05-20T12:20:51.399Z,44.00
2019-05-20T12:23:38.579Z,44.10
2019-05-20T12:26:07.168Z,44.20
2019-05-20T12:28:37.326Z,44.40
2019-05-20T12:31:08.137Z,44.40
2019-05-20T12:33:39.201Z,44.40
2019-05-20T12:36:10.702Z,44.50
2019-05-20T12:38:41.944Z,44.70
2019-05-20T12:41:12.710Z,44.70
2019-05-20T12:43:44.823Z,44.80
2019-05-20T12:46:15.856Z,44.70
2019-05-20T12:48:46.931Z,44.70
2019-05-20T12:51:17.945Z,44.70
2019-05-20T12:53:49.036Z,44.80
2019-05-20T12:56:22.504Z,44.70
2019-05-20T12:58:53.451Z,44.70
2019-05-20T13:01:24.186Z,44.70
2019-05-20T13:03:54.942Z,44.70
2019-05-20T13:06:25.936Z,44.90
2019-05-20T13:08:56.943Z,45.00
2019-05-20T13:11:27.832Z,45.10
2019-05-20T13:13:58.817Z,45.20
2019-05-20T13:16:43.003Z,45.50
2019-05-20T13:19:15.238Z,45.50
2019-05-20T13:21:46.316Z,45.60
2019-05-20T13:24:26.690Z,45.80
2019-05-20T13:27:40.304Z,45.80
2019-05-20T13:30:13.394Z,45.90
2019-05-20T13:32:45.985Z,46.20
2019-05-20T13:35:27.987Z,46.40
2019-05-20T13:38:03.079Z,46.40
2019-05-20T13:40:45.705Z,46.50
2019-05-20T13:43:09.383Z,46.50
2019-05-20T13:45:47.985Z,46.60
2019-05-20T13:48:16.907Z,46.90
2019-05-20T13:50:47.875Z,47.20
2019-05-20T13:53:18.677Z,46.90
2019-05-20T13:55:49.618Z,47.00
2019-05-20T13:58:21.642Z,47.00
2019-05-20T14:00:57.577Z,47.00
2019-05-20T14:03:29.344Z,46.90
2019-05-20T14:06:01.656Z,46.90
2019-05-20T14:08:33.074Z,46.90
2019-05-20T14:11:05.055Z,47.00
2019-05-20T14:13:37.337Z,46.90
2019-05-20T14:16:11.549Z,46.90
2019-05-20T14:18:43.843Z,47.00
2019-05-20T14:21:14.789Z,47.30
2019-05-20T14:23:48.027Z,47.30
2019-05-20T14:26:18.728Z,47.40
2019-05-20T14:28:51.100Z,47.50
2019-05-20T14:31:27.460Z,47.70
2019-05-20T14:33:59.376Z,47.80
2019-05-20T14:36:39.297Z,47.70
2019-05-20T14:39:08.612Z,47.40
2019-05-20T14:41:39.557Z,48.10
2019-05-20T14:44:11.669Z,48.30
2019-05-20T14:46:43.818Z,48.70
2019-05-20T14:49:14.701Z,48.60
2019-05-20T14:51:46.796Z,49.30
2019-05-20T14:54:20.477Z,49.60
2019-05-20T14:56:52.364Z,49.50
2019-05-20T14:59:23.449Z,50.00
2019-05-20T15:01:54.651Z,50.30
2019-05-20T15:04:25.579Z,50.60
2019-05-20T15:06:59.121Z,50.90
2019-05-20T15:09:29.799Z,50.80
2019-05-20T15:12:00.691Z,51.00
2019-05-20T15:14:31.465Z,51.20
2019-05-20T15:17:05.595Z,51.50
2019-05-20T15:19:36.522Z,51.80
2019-05-20T15:22:07.367Z,51.80
2019-05-20T15:24:38.152Z,52.00
2019-05-20T15:27:09.022Z,52.20
2019-05-20T15:29:40.016Z,52.40
2019-05-20T15:32:10.892Z,51.90
2019-05-20T15:34:41.791Z,52.50
2019-05-20T15:37:12.909Z,52.50
2019-05-20T15:39:43.920Z,52.50
2019-05-20T15:42:14.983Z,52.60
2019-05-20T15:44:45.947Z,52.50
2019-05-20T15:47:18.922Z,52.60
2019-05-20T15:49:49.109Z,52.80
2019-05-20T15:52:19.926Z,52.60
2019-05-20T15:54:51.019Z,52.70
2019-05-20T15:57:21.937Z,52.70
2019-05-20T15:59:53.171Z,52.70
2019-05-20T16:02:24.202Z,52.80
2019-05-20T16:04:55.111Z,52.60
2019-05-20T16:07:25.949Z,52.60
2019-05-20T16:09:56.977Z,52.60
2019-05-20T16:12:27.939Z,52.80
2019-05-20T16:14:58.638Z,52.70
2019-05-20T16:17:31.530Z,52.70
2019-05-20T16:20:01.934Z,52.90
2019-05-20T16:22:32.945Z,52.80
2019-05-20T16:25:03.998Z,52.80
2019-05-20T16:27:34.823Z,52.90
2019-05-20T16:30:07.780Z,52.90
2019-05-20T16:32:38.775Z,52.80
2019-05-20T16:35:10.234Z,52.80
2019-05-20T16:37:42.132Z,52.90
2019-05-20T16:40:14.559Z,53.00
2019-05-20T16:42:45.515Z,53.10
2019-05-20T16:45:16.586Z,53.10
2019-05-20T16:47:47.564Z,53.10
2019-05-20T16:50:19.306Z,53.10
2019-05-20T16:52:50.175Z,53.20
2019-05-20T16:55:37.564Z,53.30
2019-05-20T16:58:08.446Z,53.30
2019-05-20T17:00:39.407Z,53.20
2019-05-20T17:03:10.346Z,53.20
2019-05-20T17:05:43.041Z,53.20
2019-05-20T17:08:13.751Z,53.10
2019-05-20T17:10:44.591Z,53.20
2019-05-20T17:13:16.905Z,53.30
2019-05-20T17:15:50.039Z,53.30
2019-05-20T17:18:20.390Z,52.80
2019-05-20T17:20:51.346Z,53.60
2019-05-20T17:23:22.692Z,53.70
2019-05-20T17:25:54.753Z,53.60
2019-05-20T17:28:25.710Z,53.80
2019-05-20T17:30:56.704Z,53.80
2019-05-20T17:33:28.059Z,54.10
2019-05-20T17:35:59.974Z,54.20
2019-05-20T17:38:31.075Z,54.40
2019-05-20T17:41:02.003Z,54.40
2019-05-20T17:43:32.951Z,55.30
2019-05-20T17:46:04.066Z,54.90
2019-05-20T17:48:34.968Z,54.90
2019-05-20T17:51:05.863Z,55.10
2019-05-20T17:53:36.846Z,55.20
2019-05-20T17:56:08.107Z,55.20
2019-05-20T17:58:39.150Z,55.30
2019-05-20T18:01:15.401Z,55.30
2019-05-20T18:03:42.296Z,55.50
2019-05-20T18:06:13.254Z,55.50
2019-05-20T18:08:45.407Z,55.50
2019-05-20T18:11:19.203Z,55.60
2019-05-20T18:13:49.374Z,55.60
2019-05-20T18:16:20.131Z,55.80
2019-05-20T18:18:51.087Z,55.80
2019-05-20T18:21:21.923Z,55.90
2019-05-20T18:23:52.618Z,56.00
2019-05-20T18:26:23.527Z,56.10
2019-05-20T18:28:54.628Z,56.30
2019-05-20T18:31:32.418Z,56.40
2019-05-20T18:33:58.348Z,56.60
2019-05-20T18:36:29.330Z,56.80
2019-05-20T18:39:00.390Z,56.90
2019-05-20T18:41:31.161Z,56.90
2019-05-20T18:44:01.972Z,57.30
2019-05-20T18:46:33.181Z,57.30
2019-05-20T18:49:04.086Z,57.40
2019-05-20T18:51:35.040Z,57.50
2019-05-20T18:54:06.050Z,57.90
2019-05-20T18:56:37.139Z,57.70
2019-05-20T18:59:08.059Z,57.90
2019-05-20T19:01:50.564Z,57.90
2019-05-20T19:04:11.392Z,58.00
2019-05-20T19:06:42.681Z,58.00
2019-05-20T19:09:14.138Z,57.90
2019-05-20T19:11:45.117Z,57.80
2019-05-20T19:14:16.166Z,58.00
2019-05-20T19:16:47.135Z,57.80
2019-05-20T19:19:18.193Z,57.60
2019-05-20T19:21:49.032Z,57.90
2019-05-20T19:24:19.919Z,57.80
2019-05-20T19:26:50.876Z,57.90
2019-05-20T19:29:21.869Z,57.50
2019-05-20T19:32:01.486Z,57.60
2019-05-20T19:34:25.390Z,57.50
2019-05-20T19:36:56.281Z,57.50
2019-05-20T19:39:27.367Z,57.50
2019-05-20T19:41:58.257Z,57.40
2019-05-20T19:44:29.108Z,57.40
2019-05-20T19:47:01.070Z,57.60
2019-05-20T19:49:31.771Z,57.50
2019-05-20T19:52:02.850Z,57.80
2019-05-20T19:54:33.951Z,57.60
2019-05-20T19:57:04.907Z,57.90
2019-05-20T19:59:49.197Z,57.90
2019-05-20T20:02:20.268Z,58.00
2019-05-20T20:04:51.243Z,58.20
2019-05-20T20:07:22.449Z,58.50
2019-05-20T20:09:53.658Z,59.40
2019-05-20T20:12:24.616Z,58.90
2019-05-20T20:14:55.642Z,58.90
2019-05-20T20:17:26.432Z,59.00
2019-05-20T20:19:58.249Z,59.30
2019-05-20T20:22:29.557Z,59.50
2019-05-20T20:25:00.466Z,59.60
2019-05-20T20:27:31.472Z,59.80
2019-05-20T20:30:02.473Z,59.90
2019-05-20T20:32:38.295Z,59.90
2019-05-20T20:35:09.609Z,60.20
2019-05-20T20:37:49.464Z,60.70
2019-05-20T20:40:20.807Z,60.80
2019-05-20T20:42:51.535Z,61.40
2019-05-20T20:45:22.626Z,61.00
2019-05-20T20:47:54.228Z,61.60
2019-05-20T20:50:24.916Z,61.50
2019-05-20T20:52:55.744Z,61.70
2019-05-20T20:55:27.300Z,61.30
2019-05-20T20:57:58.186Z,61.70
2019-05-20T21:00:29.143Z,61.90
2019-05-20T21:03:00.171Z,62.10
2019-05-20T21:05:39.926Z,62.00
2019-05-20T21:08:10.704Z,62.50
2019-05-20T21:10:41.759Z,62.20
2019-05-20T21:13:12.702Z,62.30
2019-05-20T21:15:43.561Z,62.50
2019-05-20T21:18:14.626Z,62.50
2019-05-20T21:20:45.710Z,62.90
2019-05-20T21:23:17.032Z,62.80
2019-05-20T21:25:47.925Z,63.90
2019-05-20T21:28:18.820Z,62.50
2019-05-20T21:30:49.628Z,62.70
2019-05-20T21:33:20.453Z,62.90
2019-05-20T21:35:51.457Z,63.00
2019-05-20T21:38:22.240Z,63.10
2019-05-20T21:40:53.323Z,63.20
2019-05-20T21:43:24.522Z,63.10
2019-05-20T21:45:55.450Z,63.30
2019-05-20T21:48:26.440Z,63.40
2019-05-20T21:50:57.213Z,63.40
2019-05-20T21:53:28.028Z,63.30
2019-05-20T21:55:59.746Z,63.40
2019-05-20T21:58:30.787Z,63.70
2019-05-20T22:01:02.500Z,63.50
2019-05-20T22:03:33.302Z,63.50
2019-05-20T22:06:04.209Z,63.80
2019-05-20T22:08:35.060Z,63.70
2019-05-20T22:11:06.003Z,63.70
2019-05-20T22:13:37.078Z,63.60
2019-05-20T22:16:08.124Z,63.80
2019-05-20T22:18:38.963Z,64.00
2019-05-20T22:21:11.236Z,63.60
2019-05-20T22:23:43.360Z,63.90
2019-05-20T22:26:14.306Z,64.10
2019-05-20T22:28:45.521Z,63.90
2019-05-20T22:31:16.871Z,64.50
2019-05-20T22:33:47.735Z,64.20
2019-05-20T22:36:18.735Z,64.10
2019-05-20T22:38:49.525Z,65.00
2019-05-20T22:41:20.510Z,64.00
2019-05-20T22:43:51.562Z,63.90
2019-05-20T22:46:22.533Z,63.90
2019-05-20T22:48:53.291Z,64.20
2019-05-20T22:51:24.188Z,63.90
2019-05-20T22:53:55.006Z,64.30
2019-05-20T22:56:26.187Z,64.20
2019-05-20T22:58:57.152Z,64.00
2019-05-20T23:01:28.167Z,64.10
2019-05-20T23:03:59.035Z,64.40
2019-05-20T23:06:29.862Z,64.50
2019-05-20T23:09:01.382Z,64.20
2019-05-20T23:11:32.214Z,64.30
2019-05-20T23:14:03.040Z,64.30
2019-05-20T23:16:33.962Z,64.10
2019-05-20T23:19:05.176Z,64.30
2019-05-20T23:21:36.207Z,64.20
2019-05-20T23:24:07.275Z,63.90
2019-05-20T23:26:38.312Z,63.90
2019-05-20T23:29:09.359Z,64.10
2019-05-20T23:31:42.098Z,63.70
2019-05-20T23:34:13.449Z,63.80
2019-05-20T23:36:44.223Z,63.60
2019-05-20T23:39:15.080Z,63.80
2019-05-20T23:41:46.094Z,63.60
2019-05-20T23:44:17.246Z,63.60
2019-05-20T23:46:48.148Z,63.70
2019-05-20T23:49:20.202Z,63.50
2019-05-20T23:51:51.506Z,63.60
2019-05-20T23:54:22.479Z,63.40
2019-05-20T23:56:53.675Z,63.00
2019-05-20T23:59:24.921Z,63.90
